Athensville, Illinois
Current Conditions -  °F | °C
As of 5:55 AM on Friday 31 Oct 2014 (Local Time) from KIJX Reporting Station
Overcast Overcast  
Wind Chill: 39°   Ceiling: 2700
Heat Index: 46°   Visibility: 10mi
Dew Point: 35°   Wind: 22mph
Humidity: 65%   Direction: 330°NNW
Pressure: 30.16"   Gusts: 30mph
Location:  39.491°N, 90.2996°W
Report Text: KIJX 311055Z AUTO 33019G26KT 10SM BKN027 OVC033 08/02 A3016 RMK AO2 T00800017
Loading
Personal Weather Stations






























Interactive Weather Map
Tropical Storm Tracking
New forecast layout! Learn more

10-Day Weather Forecast

Advertisements
Track Severe Weather on mobile